Floresville, TX (78114)

1:11 AM CDT on April 23, 2017 (GMT -0500)
Belaire Subdivision | | Change Station

Elev 400 ft 29.12 °N, 98.16 °W | Updated 2 seconds ago

Overcast
Overcast
61.9 °F
Feels Like 61.9 °F
N
2.0
Wind Variable Wind from NE

Today
High -- | Low -- °F
--% Chance of Precip.
Yesterday
High -- | Low -- °F
Precip. -- in
Pressure 30.11 in
Visibility 10.0 miles
Clouds Overcast 6000 ft
Dew Point 48 °F
Humidity 61%
Rainfall 0.00 in
Snow Depth Not available.
6:58 AM 8:04 PM
Waning Crescent, 14% visible
METAR KSSF 230553Z AUTO 03019G27KT 10SM OVC060 17/07 A3012 RMK AO2 PK WND 02027/0552 SLP195 60000 T01720067 10183 20172 402390172 51017 $
Pressure 30.11 in
Visibility 10.0 miles
Clouds Overcast 6000 ft
Dew Point 48 °F
Humidity 61%
Rainfall 0.00 in
Snow Depth Not available.
6:58 AM 8:04 PM
Waning Crescent, 14% visible
METAR KSSF 230553Z AUTO 03019G27KT 10SM OVC060 17/07 A3012 RMK AO2 PK WND 02027/0552 SLP195 60000 T01720067 10183 20172 402390172 51017 $

Get Severe Weather Alerts

Thanks for signing up!

Be on the lookout for a verification email in your inbox.

You'll start receiving the daily forecast at 8 AM.

×

10-Day Weather Forecast

Almanac

Astronomy

Apr. 23, 2017 Rise Set
Actual Time
Civil Twilight
Nautical Twilight
Astronomical Twilight
Moon
Length of Visible Light
Length of Day
Tomorrow will be .
, % of the Moon is Illuminated

Today's Extremes

State Highs State Lows

Community

WunderPhotos

WunderBlog® & News

Nearby

Air Quality

  Air Quality AQ Index Pollutant
Not available.

Snow Depth

Station Depth Elevation

Earthquake Activity

City Distance Mag. Time & Date
Minimum magnitude displayed is 2.5.

Coastal Water Temperatures

Place Temperature

Stations

Nearby Weather Stations

Station Location Temp. Windchill Dew Point Humidity Wind Precip. Elev Updated Type
                   

Watches & Warnings

There are currently no watches in effect.